Time;durP1;ratioP1;P1;durP2;ratioP2;P2;SDS_P1;SDS_P2;PMS_P1;PMS_P2;Temp;Humidity;BMP_temperature;BMP_pressure;BME280_temperature;BME280_humidity;BME280_pressure;Samples;Min_cycle;Max_cycle;Signal;HPM_P1;HPM_P2
2023/11/23 00:00:08;;;;;;;17.37;6.67;;;10.80;99.90;;;;;;5075740;28;37137;-80
2023/11/23 00:02:38;;;;;;;19.40;5.43;;;10.90;99.90;;;;;;5072384;28;36560;-80
2023/11/23 00:05:06;;;;;;;17.37;6.07;;;10.90;99.90;;;;;;5070947;28;37540;-79
2023/11/23 00:07:33;;;;;;;17.80;5.77;;;10.90;99.90;;;;;;5079206;28;38792;-80
2023/11/23 00:09:59;;;;;;;18.03;4.93;;;10.90;99.90;;;;;;5072850;28;37192;-79
2023/11/23 00:12:25;;;;;;;14.83;6.17;;;11.00;99.90;;;;;;5077199;28;36711;-79
2023/11/23 00:14:52;;;;;;;18.60;5.50;;;11.10;99.90;;;;;;5067657;28;36185;-78
2023/11/23 00:17:24;;;;;;;16.53;4.57;;;11.10;99.90;;;;;;5072763;28;38151;-79
2023/11/23 00:19:50;;;;;;;14.02;4.55;;;11.10;99.90;;;;;;5082158;28;39092;-80
2023/11/23 00:22:16;;;;;;;14.90;4.67;;;11.20;99.90;;;;;;5076815;28;36807;-80
2023/11/23 00:24:42;;;;;;;21.27;5.60;;;11.20;99.90;;;;;;5075065;28;35839;-80
2023/11/23 00:27:08;;;;;;;14.27;4.80;;;11.30;99.90;;;;;;5077181;28;37435;-80
2023/11/23 00:29:34;;;;;;;18.40;4.80;;;11.30;99.90;;;;;;5080581;28;39654;-80
2023/11/23 00:32:01;;;;;;;16.13;4.53;;;11.40;99.90;;;;;;5081021;28;39767;-80
2023/11/23 00:34:27;;;;;;;12.50;4.43;;;11.40;99.90;;;;;;5075426;28;48641;-80
2023/11/23 00:36:53;;;;;;;20.83;4.57;;;11.40;99.90;;;;;;5078722;28;37489;-80
2023/11/23 00:39:19;;;;;;;17.42;4.82;;;11.50;99.90;;;;;;5079940;28;37861;-79
2023/11/23 00:41:45;;;;;;;11.00;4.18;;;11.50;99.90;;;;;;5077019;28;38444;-79
2023/11/23 00:44:11;;;;;;;13.93;4.40;;;11.50;99.90;;;;;;5080605;28;38007;-80
2023/11/23 00:46:38;;;;;;;18.15;4.57;;;11.50;99.90;;;;;;5080467;28;39069;-80
2023/11/23 00:49:04;;;;;;;12.73;4.25;;;11.50;99.90;;;;;;5080387;28;36625;-80
2023/11/23 00:51:33;;;;;;;15.95;4.28;;;11.60;99.90;;;;;;5077715;28;38081;-79
2023/11/23 00:54:00;;;;;;;13.52;4.68;;;11.60;99.90;;;;;;5075713;28;37775;-80
2023/11/23 00:56:26;;;;;;;15.87;4.40;;;11.60;99.90;;;;;;5076270;28;38857;-80
2023/11/23 00:58:52;;;;;;;13.70;5.00;;;11.70;99.90;;;;;;5080545;28;37322;-80
2023/11/23 01:01:18;;;;;;;17.08;4.70;;;11.70;99.90;;;;;;5072388;28;36729;-80
2023/11/23 01:03:45;;;;;;;17.63;4.57;;;11.70;99.90;;;;;;5077845;28;38654;-80
2023/11/23 01:06:11;;;;;;;16.55;4.47;;;11.70;99.90;;;;;;5079573;28;37522;-78
2023/11/23 01:08:37;;;;;;;16.02;4.22;;;11.70;99.90;;;;;;5081162;28;38929;-80
2023/11/23 01:11:03;;;;;;;18.98;5.32;;;11.70;99.90;;;;;;5072180;28;37089;-82
2023/11/23 01:13:30;;;;;;;13.95;4.35;;;11.60;99.90;;;;;;5079959;28;36054;-79
2023/11/23 01:15:56;;;;;;;13.18;3.97;;;11.70;99.90;;;;;;5075128;28;37757;-80
2023/11/23 01:18:24;;;;;;;15.77;4.28;;;11.60;99.90;;;;;;5080649;28;38958;-80
2023/11/23 01:20:50;;;;;;;16.03;4.40;;;11.60;99.90;;;;;;5085081;28;37391;-80
2023/11/23 01:23:17;;;;;;;15.47;4.50;;;11.50;99.90;;;;;;5083003;28;37436;-80
2023/11/23 01:25:45;;;;;;;11.48;4.10;;;11.50;99.90;;;;;;5082115;28;39022;-80
2023/11/23 01:28:12;;;;;;;15.60;4.10;;;11.50;99.90;;;;;;5071374;28;39656;-80
2023/11/23 01:30:38;;;;;;;16.13;4.50;;;11.40;99.90;;;;;;5069028;28;39112;-79
2023/11/23 01:33:04;;;;;;;17.30;4.57;;;11.40;99.90;;;;;;5077960;28;37292;-79
2023/11/23 01:35:30;;;;;;;17.33;4.88;;;11.40;99.90;;;;;;5064750;28;37589;-80
2023/11/23 01:37:56;;;;;;;17.17;5.15;;;11.30;99.90;;;;;;5076903;28;37901;-80
2023/11/23 01:40:23;;;;;;;16.60;4.50;;;11.30;99.90;;;;;;5070888;28;37236;-79
2023/11/23 01:42:49;;;;;;;16.30;4.43;;;11.30;99.90;;;;;;5078951;28;35251;-80
2023/11/23 01:45:15;;;;;;;17.73;4.43;;;11.20;99.90;;;;;;5076605;28;38579;-80
2023/11/23 01:47:44;;;;;;;16.47;4.27;;;11.20;99.90;;;;;;5079669;28;37409;-80
2023/11/23 01:50:14;;;;;;;21.20;4.73;;;11.30;99.90;;;;;;5080561;28;37249;-78
2023/11/23 01:52:41;;;;;;;15.20;4.17;;;11.20;99.90;;;;;;5078136;28;36584;-80
2023/11/23 01:55:08;;;;;;;17.07;4.47;;;11.20;99.90;;;;;;5079136;28;37734;-80
2023/11/23 01:57:41;;;;;;;24.20;4.73;;;11.10;99.90;;;;;;5082081;28;37410;-80
2023/11/23 02:00:08;;;;;;;16.75;4.40;;;11.10;99.90;;;;;;5097060;28;40625;-80
2023/11/23 02:02:34;;;;;;;17.73;4.80;;;11.10;99.90;;;;;;5446697;22;37312;-77
2023/11/23 02:05:05;;;;;;;19.10;5.07;;;11.10;99.90;;;;;;5048712;28;40802;-77
2023/11/23 02:07:33;;;;;;;23.33;5.80;;;11.10;99.90;;;;;;5059816;28;49260;-76
2023/11/23 02:09:59;;;;;;;14.13;4.20;;;11.20;99.90;;;;;;5059293;28;37481;-77
2023/11/23 02:12:27;;;;;;;16.92;4.75;;;11.20;99.90;;;;;;5059970;28;39967;-78
2023/11/23 02:14:54;;;;;;;20.02;4.40;;;11.10;99.90;;;;;;5064526;28;38676;-77
2023/11/23 02:17:21;;;;;;;15.00;4.43;;;11.10;99.90;;;;;;5061719;28;39431;-77
2023/11/23 02:19:48;;;;;;;13.37;4.13;;;11.10;99.90;;;;;;5058482;28;38011;-77
2023/11/23 02:22:15;;;;;;;16.00;4.90;;;11.10;99.90;;;;;;5055310;28;36363;-77
2023/11/23 02:24:45;;;;;;;11.13;4.50;;;11.10;99.90;;;;;;5065121;28;38312;-77
2023/11/23 02:27:11;;;;;;;17.43;4.40;;;11.10;99.90;;;;;;5064329;28;37150;-77
2023/11/23 02:29:38;;;;;;;17.63;4.83;;;11.20;99.90;;;;;;5067507;28;38751;-77
2023/11/23 02:32:06;;;;;;;19.60;4.30;;;11.20;99.90;;;;;;5061858;28;38232;-77
2023/11/23 02:34:33;;;;;;;9.90;3.87;;;11.20;99.90;;;;;;5061054;28;38922;-77
2023/11/23 02:37:00;;;;;;;16.15;4.90;;;11.10;99.90;;;;;;5055120;28;38209;-78
2023/11/23 02:39:26;;;;;;;16.40;4.77;;;11.20;99.90;;;;;;5063748;28;36760;-76
2023/11/23 02:41:54;;;;;;;10.20;3.43;;;11.20;99.90;;;;;;5071378;28;37047;-77
2023/11/23 02:44:20;;;;;;;17.43;4.13;;;11.20;99.90;;;;;;5062836;28;39009;-77
2023/11/23 02:46:48;;;;;;;14.00;4.07;;;11.20;99.90;;;;;;5078599;28;37589;-76
2023/11/23 02:49:15;;;;;;;13.95;3.75;;;11.20;99.90;;;;;;5062083;28;37051;-77
2023/11/23 02:51:41;;;;;;;11.00;3.80;;;11.20;99.90;;;;;;5062192;28;36077;-77
2023/11/23 02:54:08;;;;;;;13.17;3.57;;;11.20;99.90;;;;;;5061676;28;37394;-77
2023/11/23 02:56:36;;;;;;;17.57;4.50;;;11.20;99.90;;;;;;5062892;28;38386;-78
2023/11/23 02:59:05;;;;;;;13.73;4.37;;;11.20;99.90;;;;;;5066680;28;37933;-78
2023/11/23 03:01:34;;;;;;;14.20;3.30;;;11.20;99.90;;;;;;5065340;28;36058;-77
2023/11/23 03:04:00;;;;;;;12.33;3.40;;;11.30;99.90;;;;;;5063467;28;37605;-77
2023/11/23 03:06:26;;;;;;;8.48;2.97;;;11.20;99.90;;;;;;5066690;28;37071;-77
2023/11/23 03:08:56;;;;;;;15.70;3.22;;;11.20;99.90;;;;;;5068399;28;36934;-77
2023/11/23 03:11:26;;;;;;;16.07;4.07;;;11.20;99.90;;;;;;5060358;28;36531;-77
2023/11/23 03:13:53;;;;;;;14.10;3.67;;;11.20;99.90;;;;;;5070723;28;38129;-77
2023/11/23 03:16:20;;;;;;;11.80;3.40;;;11.20;99.90;;;;;;5064743;28;38269;-77
2023/11/23 03:18:46;;;;;;;10.32;3.17;;;11.20;99.90;;;;;;5065021;28;36904;-77
2023/11/23 03:21:12;;;;;;;9.03;3.30;;;11.20;99.90;;;;;;5064840;28;37897;-77
2023/11/23 03:23:41;;;;;;;11.03;3.97;;;11.10;99.90;;;;;;5061956;28;39356;-76
2023/11/23 03:26:07;;;;;;;10.03;3.03;;;11.20;99.90;;;;;;5066667;28;37884;-79
2023/11/23 03:28:33;;;;;;;10.63;3.77;;;11.20;99.90;;;;;;5059276;28;37822;-76
2023/11/23 03:30:59;;;;;;;14.07;4.03;;;11.20;99.90;;;;;;5059176;28;37389;-76
2023/11/23 03:33:25;;;;;;;14.20;3.53;;;11.20;99.90;;;;;;5059472;28;37971;-77
2023/11/23 03:35:51;;;;;;;17.93;3.97;;;11.30;99.90;;;;;;5061158;28;38364;-77
2023/11/23 03:38:17;;;;;;;11.63;4.07;;;11.20;99.90;;;;;;5063216;28;37420;-77
2023/11/23 03:40:44;;;;;;;11.53;3.20;;;11.20;99.90;;;;;;5060747;28;36876;-80
2023/11/23 03:43:10;;;;;;;15.87;3.87;;;11.20;99.90;;;;;;5061240;28;37769;-76
2023/11/23 03:45:36;;;;;;;11.80;3.60;;;11.10;99.90;;;;;;5061724;28;38604;-77
2023/11/23 03:48:03;;;;;;;23.33;4.17;;;11.10;99.90;;;;;;5063125;28;37943;-78
2023/11/23 03:50:29;;;;;;;12.53;3.87;;;11.10;99.90;;;;;;5060839;28;37655;-77
2023/11/23 03:52:55;;;;;;;10.90;3.73;;;11.10;99.90;;;;;;5066683;28;37633;-76
2023/11/23 03:55:24;;;;;;;15.90;4.40;;;11.10;99.90;;;;;;5055044;28;39431;-77
2023/11/23 03:57:51;;;;;;;14.60;4.60;;;11.10;99.90;;;;;;5062185;28;37066;-77
2023/11/23 04:00:17;;;;;;;14.63;4.20;;;11.10;99.90;;;;;;5054536;28;36505;-77
2023/11/23 04:02:43;;;;;;;18.97;5.23;;;11.10;99.90;;;;;;5061839;28;38083;-79
2023/11/23 04:05:09;;;;;;;14.97;3.67;;;11.10;99.90;;;;;;5060097;28;37567;-78
2023/11/23 04:07:36;;;;;;;20.47;4.30;;;11.10;99.90;;;;;;5057422;28;38121;-77
2023/11/23 04:10:03;;;;;;;11.63;4.90;;;11.10;99.90;;;;;;5063257;28;38883;-77
2023/11/23 04:12:29;;;;;;;17.97;4.20;;;11.10;99.90;;;;;;5060978;28;38524;-77
2023/11/23 04:14:56;;;;;;;16.63;4.00;;;11.10;99.90;;;;;;5064332;28;38215;-78
2023/11/23 04:17:22;;;;;;;20.57;4.50;;;11.10;99.90;;;;;;5059232;28;37321;-78
2023/11/23 04:19:48;;;;;;;15.13;4.87;;;11.10;99.90;;;;;;5071344;28;37521;-78
2023/11/23 04:22:14;;;;;;;20.33;4.80;;;11.10;99.90;;;;;;5064974;28;39591;-77
2023/11/23 04:24:41;;;;;;;16.07;3.87;;;11.10;99.90;;;;;;5064254;28;37323;-77
2023/11/23 04:27:08;;;;;;;14.67;4.50;;;11.10;99.90;;;;;;5057055;28;37588;-77
2023/11/23 04:29:35;;;;;;;13.50;3.97;;;11.00;99.90;;;;;;5061918;28;36605;-78
2023/11/23 04:32:01;;;;;;;22.60;4.83;;;11.00;99.90;;;;;;5053197;28;38959;-78
2023/11/23 04:34:27;;;;;;;10.10;3.50;;;11.00;99.90;;;;;;5074223;28;46961;-77
2023/11/23 04:36:53;;;;;;;18.50;4.43;;;10.90;99.90;;;;;;5061031;28;38601;-79
2023/11/23 04:39:19;;;;;;;15.97;4.50;;;10.80;99.90;;;;;;5061271;28;36299;-78
2023/11/23 04:41:45;;;;;;;18.58;4.90;;;10.80;99.90;;;;;;5056977;28;37917;-78
2023/11/23 04:44:11;;;;;;;17.17;4.77;;;10.80;99.90;;;;;;5060556;28;38004;-78
2023/11/23 04:46:37;;;;;;;13.17;4.47;;;10.80;99.90;;;;;;5056151;28;39832;-78
2023/11/23 04:49:04;;;;;;;15.60;4.50;;;10.80;99.90;;;;;;5060950;28;36976;-78
2023/11/23 04:51:30;;;;;;;22.07;4.47;;;10.80;99.90;;;;;;5064340;28;39156;-78
2023/11/23 04:53:56;;;;;;;16.53;5.10;;;10.80;99.90;;;;;;5061608;28;38420;-80
2023/11/23 04:56:23;;;;;;;12.27;4.43;;;10.70;99.90;;;;;;5062673;28;38797;-77
2023/11/23 04:58:49;;;;;;;19.40;5.03;;;10.70;99.90;;;;;;5059680;28;37819;-78
2023/11/23 05:01:15;;;;;;;12.30;4.47;;;10.70;99.90;;;;;;5057163;28;39624;-77
2023/11/23 05:03:41;;;;;;;16.13;4.97;;;10.70;99.90;;;;;;5073852;28;37784;-78
2023/11/23 05:06:08;;;;;;;15.23;4.90;;;10.60;99.90;;;;;;5059224;28;37687;-77
2023/11/23 05:08:34;;;;;;;15.80;4.60;;;10.60;99.90;;;;;;5058129;28;37815;-77
2023/11/23 05:11:01;;;;;;;10.03;4.53;;;10.60;99.90;;;;;;5062886;28;37957;-78
2023/11/23 05:13:27;;;;;;;16.43;4.60;;;10.60;99.90;;;;;;5060403;28;47195;-78
2023/11/23 05:15:53;;;;;;;11.43;3.77;;;10.60;99.90;;;;;;5060551;28;38436;-77
2023/11/23 05:18:19;;;;;;;10.70;3.93;;;10.60;99.90;;;;;;5058289;28;36208;-77
2023/11/23 05:20:45;;;;;;;14.17;4.37;;;10.60;99.90;;;;;;5059111;28;37474;-78
2023/11/23 05:23:11;;;;;;;10.83;3.83;;;10.60;99.90;;;;;;5059705;28;37381;-80
2023/11/23 05:25:37;;;;;;;12.77;3.83;;;10.60;99.90;;;;;;5061730;28;38342;-78
2023/11/23 05:28:03;;;;;;;14.30;4.50;;;10.60;99.90;;;;;;5054751;28;36373;-77
2023/11/23 05:30:31;;;;;;;13.97;4.10;;;10.60;99.90;;;;;;5054254;28;39106;-78
2023/11/23 05:33:00;;;;;;;19.13;3.80;;;10.60;99.90;;;;;;5052200;28;37223;-77
2023/11/23 05:35:27;;;;;;;16.73;5.40;;;10.60;99.90;;;;;;5076351;28;37738;-77
2023/11/23 05:37:53;;;;;;;19.90;3.77;;;10.70;99.90;;;;;;5057315;28;37092;-77
2023/11/23 05:40:19;;;;;;;17.97;4.50;;;10.70;99.90;;;;;;5055732;28;37796;-77
2023/11/23 05:42:46;;;;;;;10.87;4.03;;;10.70;99.90;;;;;;5073507;28;37007;-77
2023/11/23 05:45:13;;;;;;;16.93;3.60;;;10.80;99.90;;;;;;5060904;28;38232;-78
2023/11/23 05:47:39;;;;;;;15.73;3.80;;;10.90;99.90;;;;;;5063387;28;36111;-78
2023/11/23 05:50:06;;;;;;;15.80;3.73;;;10.90;99.90;;;;;;5059291;28;37646;-80
2023/11/23 05:52:32;;;;;;;16.73;3.67;;;10.90;99.90;;;;;;5061543;28;37316;-79
2023/11/23 05:54:58;;;;;;;16.73;3.83;;;10.90;99.90;;;;;;5064512;28;38859;-79
2023/11/23 05:57:25;;;;;;;13.43;3.07;;;10.80;99.90;;;;;;5056113;28;37397;-79
2023/11/23 05:59:51;;;;;;;11.40;3.70;;;10.90;99.90;;;;;;5061982;28;37783;-79
2023/11/23 06:02:20;;;;;;;14.67;3.57;;;10.80;99.90;;;;;;5059110;28;39024;-78
2023/11/23 06:04:47;;;;;;;19.60;4.43;;;10.80;99.90;;;;;;5066260;28;36678;-78
2023/11/23 06:07:15;;;;;;;14.47;3.03;;;10.80;99.90;;;;;;5058466;28;36336;-77
2023/11/23 06:09:42;;;;;;;13.83;3.27;;;10.80;99.90;;;;;;5061499;28;39809;-77
2023/11/23 06:12:09;;;;;;;15.90;4.47;;;10.80;99.90;;;;;;5062468;28;38695;-79
2023/11/23 06:14:38;;;;;;;19.50;3.77;;;10.80;99.90;;;;;;5061872;28;38647;-78
2023/11/23 06:17:06;;;;;;;9.80;3.13;;;10.70;99.90;;;;;;5061097;28;35968;-76
2023/11/23 06:19:32;;;;;;;18.17;3.57;;;10.70;99.90;;;;;;5052360;28;37545;-77
2023/11/23 06:21:58;;;;;;;21.63;4.40;;;10.70;99.90;;;;;;5052035;28;37337;-77
2023/11/23 06:24:24;;;;;;;10.13;3.67;;;10.70;99.90;;;;;;5067364;28;38733;-76
2023/11/23 06:26:52;;;;;;;17.37;4.20;;;10.70;99.90;;;;;;5056322;28;37821;-77
2023/11/23 06:29:18;;;;;;;11.67;3.83;;;10.70;99.90;;;;;;5054166;28;39208;-78
2023/11/23 06:31:44;;;;;;;18.63;3.50;;;10.70;99.90;;;;;;5033556;28;38562;-77
2023/11/23 06:34:11;;;;;;;13.83;4.00;;;10.60;99.90;;;;;;5021415;28;37350;-77
2023/11/23 06:36:39;;;;;;;18.10;4.37;;;10.60;99.90;;;;;;5031062;28;35952;-77
2023/11/23 06:39:07;;;;;;;24.90;4.47;;;10.70;99.90;;;;;;5026625;28;40063;-78
2023/11/23 06:41:33;;;;;;;22.93;3.80;;;10.70;99.90;;;;;;5054131;28;37339;-78
2023/11/23 06:44:00;;;;;;;17.13;4.63;;;10.70;99.90;;;;;;5028866;28;37326;-76
2023/11/23 06:46:26;;;;;;;19.37;3.97;;;10.70;99.90;;;;;;5030493;28;37094;-78
2023/11/23 06:48:52;;;;;;;19.57;4.30;;;10.70;99.90;;;;;;5030278;28;38765;-78
2023/11/23 06:51:19;;;;;;;14.77;3.50;;;10.70;99.90;;;;;;5028075;28;38745;-80
2023/11/23 06:53:48;;;;;;;21.27;4.43;;;10.70;99.90;;;;;;5051299;28;38373;-78
2023/11/23 06:56:15;;;;;;;21.10;4.13;;;10.70;99.90;;;;;;5030765;28;38810;-78
2023/11/23 06:58:42;;;;;;;19.17;4.40;;;10.70;99.90;;;;;;5028340;28;39506;-79
2023/11/23 07:01:09;;;;;;;18.27;4.13;;;10.70;99.90;;;;;;5026967;28;39636;-78
2023/11/23 07:03:37;;;;;;;14.57;3.87;;;10.60;99.90;;;;;;5028452;28;37441;-80
2023/11/23 07:06:04;;;;;;;17.60;3.80;;;10.70;99.90;;;;;;5029813;28;36636;-79
2023/11/23 07:08:40;;;;;;;15.37;4.27;;;10.70;99.90;;;;;;5026389;28;37296;-78
2023/11/23 07:11:06;;;;;;;15.43;3.67;;;10.70;99.90;;;;;;5030693;28;40330;-79
2023/11/23 07:13:33;;;;;;;13.23;3.60;;;10.70;99.90;;;;;;5033598;28;37113;-78
2023/11/23 07:16:02;;;;;;;12.57;4.20;;;10.80;99.90;;;;;;5031740;28;36254;-78
2023/11/23 07:18:29;;;;;;;12.50;3.93;;;10.80;99.90;;;;;;5030997;28;47428;-77
2023/11/23 07:20:55;;;;;;;11.37;3.20;;;10.90;99.90;;;;;;5030113;28;37892;-77
2023/11/23 07:23:22;;;;;;;12.53;3.53;;;11.00;99.90;;;;;;5031122;28;37995;-79
2023/11/23 07:25:48;;;;;;;15.30;3.70;;;11.00;99.90;;;;;;5031762;28;36984;-78
2023/11/23 07:28:14;;;;;;;14.87;4.07;;;11.00;99.90;;;;;;5031830;28;37403;-79
2023/11/23 07:30:41;;;;;;;12.30;3.40;;;11.00;99.90;;;;;;5034406;28;41423;-78
2023/11/23 07:33:09;;;;;;;17.27;3.83;;;11.00;99.90;;;;;;5046758;28;37565;-77
2023/11/23 07:35:36;;;;;;;18.73;3.50;;;11.00;99.90;;;;;;5033607;28;36981;-81
2023/11/23 07:38:05;;;;;;;16.33;4.03;;;11.00;99.90;;;;;;5030458;28;39356;-82
2023/11/23 07:40:32;;;;;;;14.90;4.37;;;11.00;99.90;;;;;;5029966;28;37386;-84
2023/11/23 07:42:58;;;;;;;19.50;3.73;;;11.00;99.90;;;;;;5036169;28;36962;-82
2023/11/23 07:45:24;;;;;;;13.97;3.80;;;11.00;99.90;;;;;;5031647;28;35709;-82
2023/11/23 07:47:51;;;;;;;16.17;4.27;;;11.00;99.90;;;;;;5031996;28;37760;-82
2023/11/23 07:50:17;;;;;;;15.27;4.47;;;11.00;99.90;;;;;;5033584;28;39265;-82
2023/11/23 07:52:44;;;;;;;21.37;3.93;;;11.00;99.90;;;;;;5029337;28;37067;-82
2023/11/23 07:55:12;;;;;;;18.80;4.10;;;11.00;99.90;;;;;;5034037;28;37679;-81
2023/11/23 07:57:39;;;;;;;26.13;4.70;;;11.00;99.90;;;;;;5036741;28;39597;-82
2023/11/23 08:00:07;;;;;;;22.20;4.40;;;11.00;99.90;;;;;;5038124;28;37341;-81
2023/11/23 08:02:33;;;;;;;16.97;4.07;;;11.00;99.90;;;;;;5029763;28;37150;-81
2023/11/23 08:04:59;;;;;;;22.70;4.50;;;11.00;99.90;;;;;;5038149;28;40219;-82
2023/11/23 08:07:26;;;;;;;18.80;4.67;;;11.00;99.90;;;;;;5031168;28;39698;-81
2023/11/23 08:09:52;;;;;;;13.53;3.80;;;11.00;99.90;;;;;;5033107;28;38074;-82
2023/11/23 08:12:19;;;;;;;16.77;4.60;;;11.10;99.90;;;;;;5035706;28;38515;-82
2023/11/23 08:14:45;;;;;;;22.90;4.30;;;11.10;99.90;;;;;;5033105;28;35982;-82
2023/11/23 08:17:13;;;;;;;14.03;3.90;;;11.10;99.90;;;;;;5052066;28;35352;-82
2023/11/23 08:19:39;;;;;;;18.83;3.93;;;11.10;99.90;;;;;;5033703;28;38019;-83
2023/11/23 08:22:08;;;;;;;18.37;3.97;;;11.10;99.90;;;;;;5034700;28;37185;-80
2023/11/23 08:24:34;;;;;;;15.10;4.50;;;11.10;99.90;;;;;;5035773;28;37458;-81
2023/11/23 08:27:01;;;;;;;18.57;4.20;;;11.10;99.90;;;;;;5030002;28;38674;-82
2023/11/23 08:29:30;;;;;;;17.17;4.23;;;11.10;99.90;;;;;;5029698;28;46567;-80
2023/11/23 08:31:58;;;;;;;11.70;4.10;;;11.10;99.90;;;;;;5030711;28;38658;-79
2023/11/23 08:34:25;;;;;;;11.77;3.37;;;11.10;99.90;;;;;;5028255;28;37808;-80
2023/11/23 08:36:52;;;;;;;12.07;3.60;;;11.10;99.90;;;;;;5026901;28;39169;-79
2023/11/23 08:39:19;;;;;;;14.10;3.70;;;11.10;99.90;;;;;;5024591;28;37640;-79
2023/11/23 08:41:46;;;;;;;15.77;3.83;;;11.20;99.90;;;;;;5037879;28;38224;-81
2023/11/23 08:44:14;;;;;;;16.27;3.90;;;11.20;99.90;;;;;;5036711;28;36346;-81
2023/11/23 08:46:41;;;;;;;19.13;4.17;;;11.30;99.90;;;;;;5035100;28;37898;-81
2023/11/23 08:49:10;;;;;;;17.23;3.13;;;11.30;99.90;;;;;;5033725;28;38623;-80
2023/11/23 08:51:37;;;;;;;10.60;3.30;;;11.40;99.90;;;;;;5038421;28;37469;-81
2023/11/23 08:54:05;;;;;;;16.80;4.30;;;11.50;99.90;;;;;;5038313;28;36877;-80
2023/11/23 08:56:35;;;;;;;14.60;3.60;;;11.60;99.90;;;;;;5042372;28;37589;-81
2023/11/23 08:59:02;;;;;;;17.03;3.57;;;11.70;99.90;;;;;;5032827;28;37527;-83
2023/11/23 09:01:28;;;;;;;18.90;3.73;;;11.70;99.90;;;;;;5038260;28;36664;-81
2023/11/23 09:03:55;;;;;;;18.90;3.40;;;11.70;99.90;;;;;;5039716;28;36655;-81
2023/11/23 09:06:22;;;;;;;18.13;4.40;;;11.80;99.90;;;;;;5035524;28;37794;-79
2023/11/23 09:08:49;;;;;;;15.20;3.37;;;11.80;99.90;;;;;;5036969;28;40489;-82
2023/11/23 09:11:16;;;;;;;17.17;3.17;;;11.90;99.90;;;;;;5034277;28;38184;-80
2023/11/23 09:13:43;;;;;;;12.00;3.40;;;11.90;99.90;;;;;;5030198;28;38003;-81
2023/11/23 09:16:11;;;;;;;26.90;3.70;;;12.00;99.90;;;;;;5031135;28;38093;-80
2023/11/23 09:18:39;;;;;;;17.87;3.27;;;12.20;99.90;;;;;;5037992;28;37607;-80
2023/11/23 09:21:06;;;;;;;13.45;3.00;;;12.40;99.90;;;;;;5038788;28;36449;-80
2023/11/23 09:23:32;;;;;;;16.93;3.07;;;12.40;99.90;;;;;;5032165;28;36516;-81
2023/11/23 09:25:59;;;;;;;16.00;3.63;;;12.50;99.90;;;;;;5040279;28;38029;-82
2023/11/23 09:28:25;;;;;;;14.02;3.13;;;12.60;99.90;;;;;;5027534;28;38948;-79
2023/11/23 09:30:51;;;;;;;14.27;3.00;;;12.60;99.90;;;;;;5030876;28;37566;-80
2023/11/23 09:33:18;;;;;;;18.73;3.23;;;12.70;99.90;;;;;;5030418;28;37050;-80
2023/11/23 09:35:44;;;;;;;12.85;2.35;;;12.70;99.90;;;;;;5032405;28;39588;-80
2023/11/23 09:38:10;;;;;;;11.48;2.72;;;12.80;99.90;;;;;;5040085;28;37588;-81
2023/11/23 09:40:37;;;;;;;13.75;2.25;;;12.90;99.90;;;;;;5034323;28;38056;-80
2023/11/23 09:43:04;;;;;;;10.85;2.58;;;13.00;99.90;;;;;;5030360;28;35663;-79
2023/11/23 09:45:31;;;;;;;10.63;2.30;;;13.10;99.90;;;;;;5029268;28;38760;-81
2023/11/23 09:47:59;;;;;;;9.65;2.38;;;13.30;99.90;;;;;;5039433;28;38181;-81
2023/11/23 09:50:27;;;;;;;14.90;2.15;;;13.40;99.90;;;;;;5034643;28;39378;-81
2023/11/23 09:52:54;;;;;;;7.47;2.03;;;13.40;99.90;;;;;;5035244;28;39994;-81
2023/11/23 09:55:20;;;;;;;8.30;2.05;;;13.40;99.90;;;;;;5036405;28;37780;-83
2023/11/23 09:57:50;;;;;;;8.00;1.95;;;13.40;99.90;;;;;;5034234;28;37665;-81
2023/11/23 10:00:18;;;;;;;9.40;1.88;;;13.40;99.90;;;;;;5037958;28;37245;-83
2023/11/23 10:02:55;;;;;;;12.77;1.90;;;13.40;99.90;;;;;;5031483;28;36707;-81
2023/11/23 10:05:23;;;;;;;10.05;2.42;;;13.50;99.90;;;;;;5049316;28;37931;-80
2023/11/23 10:07:52;;;;;;;9.73;2.17;;;13.50;99.90;;;;;;5038782;28;38361;-81
2023/11/23 10:10:18;;;;;;;12.98;1.70;;;13.60;99.90;;;;;;5038253;28;36908;-80
2023/11/23 10:12:48;;;;;;;6.57;1.67;;;13.60;99.90;;;;;;5035472;28;37696;-82
2023/11/23 10:15:14;;;;;;;8.65;1.88;;;13.60;99.90;;;;;;5033689;28;39338;-81
2023/11/23 10:17:40;;;;;;;6.18;1.38;;;13.70;99.90;;;;;;5031377;28;39008;-81
2023/11/23 10:20:16;;;;;;;13.18;2.60;;;13.70;99.90;;;;;;5031036;28;37503;-81
2023/11/23 10:22:47;;;;;;;9.80;2.88;;;13.80;99.90;;;;;;5036913;28;38025;-81
2023/11/23 10:25:34;;;;;;;4.90;1.67;;;14.00;99.90;;;;;;5031583;28;38779;-81
2023/11/23 10:28:01;;;;;;;7.53;1.83;;;14.10;99.90;;;;;;5033776;28;39171;-81
2023/11/23 10:30:28;;;;;;;11.93;2.00;;;14.10;99.90;;;;;;5031594;28;47088;-81
2023/11/23 10:32:59;;;;;;;5.95;1.75;;;14.10;99.90;;;;;;5034524;28;37090;-81
2023/11/23 10:35:38;;;;;;;9.90;1.70;;;14.10;99.90;;;;;;5031513;28;38743;-80
2023/11/23 10:38:06;;;;;;;5.15;1.80;;;14.00;99.90;;;;;;5046892;28;37229;-80
2023/11/23 10:40:33;;;;;;;11.25;1.75;;;14.00;99.90;;;;;;5038767;28;37766;-80
2023/11/23 10:43:01;;;;;;;9.27;2.33;;;14.00;99.90;;;;;;5039926;28;36010;-81
2023/11/23 10:45:28;;;;;;;10.70;1.98;;;14.10;99.90;;;;;;5041026;28;48471;-80
2023/11/23 10:47:58;;;;;;;4.30;1.73;;;14.00;99.90;;;;;;5043422;28;38137;-80
2023/11/23 10:50:25;;;;;;;11.68;2.17;;;14.00;99.90;;;;;;5038518;28;37141;-80
2023/11/23 10:52:57;;;;;;;7.70;1.80;;;14.00;99.90;;;;;;5040145;28;36286;-81
2023/11/23 10:55:26;;;;;;;11.82;1.70;;;14.00;99.90;;;;;;5042452;28;39588;-78
2023/11/23 10:58:04;;;;;;;9.02;2.00;;;14.10;99.90;;;;;;5038171;28;37900;-79
2023/11/23 11:00:31;;;;;;;11.18;1.90;;;14.10;99.90;;;;;;5043110;28;48070;-80
2023/11/23 11:03:00;;;;;;;12.55;2.10;;;14.10;99.90;;;;;;5041846;28;36198;-79
2023/11/23 11:05:35;;;;;;;8.32;2.22;;;14.10;99.90;;;;;;5039828;28;37803;-79
2023/11/23 11:08:05;;;;;;;11.30;1.88;;;14.10;99.90;;;;;;5040168;28;37670;-79
2023/11/23 11:10:46;;;;;;;7.70;1.60;;;14.10;99.90;;;;;;5046623;28;37766;-79
2023/11/23 11:13:15;;;;;;;7.82;2.25;;;14.10;99.90;;;;;;5039644;28;36932;-79
2023/11/23 11:15:57;;;;;;;9.07;2.00;;;14.20;99.90;;;;;;5036173;28;39064;-80
2023/11/23 11:18:27;;;;;;;6.28;1.70;;;14.20;99.90;;;;;;5036470;28;38231;-82
2023/11/23 11:21:12;;;;;;;8.02;1.58;;;14.20;99.90;;;;;;5036395;28;37948;-82
2023/11/23 11:23:43;;;;;;;9.90;1.80;;;14.20;99.90;;;;;;5039460;28;47591;-81
2023/11/23 11:26:16;;;;;;;12.13;1.80;;;14.20;99.90;;;;;;5035996;28;38643;-81
2023/11/23 11:28:50;;;;;;;13.00;2.45;;;14.30;99.90;;;;;;5040478;28;39117;-80
2023/11/23 11:31:18;;;;;;;8.32;1.98;;;14.30;99.90;;;;;;5038159;28;38426;-80
2023/11/23 11:33:51;;;;;;;12.63;1.90;;;14.30;99.90;;;;;;5037609;28;38038;-80
2023/11/23 11:36:18;;;;;;;14.55;2.05;;;14.30;99.90;;;;;;5043622;28;39326;-80
2023/11/23 11:39:00;;;;;;;12.95;2.50;;;14.30;99.90;;;;;;5041343;28;37834;-81
2023/11/23 11:41:29;;;;;;;8.52;2.20;;;14.30;99.90;;;;;;5044869;28;47008;-81
2023/11/23 11:43:59;;;;;;;8.10;1.98;;;14.40;99.90;;;;;;5039016;28;36385;-87
2023/11/23 11:46:28;;;;;;;10.95;2.80;;;14.40;99.90;;;;;;5039237;28;38795;-80
2023/11/23 11:48:58;;;;;;;12.93;2.15;;;14.40;99.90;;;;;;5036158;28;38508;-83
2023/11/23 11:51:29;;;;;;;12.80;1.90;;;14.40;99.90;;;;;;5035008;28;37526;-81
2023/11/23 11:53:56;;;;;;;12.68;2.65;;;14.30;99.90;;;;;;5043369;28;35686;-80
2023/11/23 11:56:22;;;;;;;13.30;2.25;;;14.20;99.90;;;;;;5039416;28;38718;-79
2023/11/23 11:58:49;;;;;;;13.88;2.53;;;14.20;99.90;;;;;;5042003;28;37489;-80
2023/11/23 12:01:16;;;;;;;13.02;2.70;;;14.20;99.90;;;;;;5039344;28;38869;-80
2023/11/23 12:03:42;;;;;;;13.55;2.83;;;14.20;99.90;;;;;;5040641;28;36871;-80
2023/11/23 12:06:09;;;;;;;14.38;2.45;;;14.20;99.90;;;;;;5040905;28;37971;-81
2023/11/23 12:08:35;;;;;;;23.13;3.35;;;14.30;99.90;;;;;;5040591;28;37347;-80
2023/11/23 12:11:05;;;;;;;12.23;2.90;;;14.20;99.90;;;;;;5040287;28;37954;-78
2023/11/23 12:13:33;;;;;;;10.20;2.78;;;14.30;99.90;;;;;;5038684;28;36150;-81
2023/11/23 12:15:59;;;;;;;9.77;2.40;;;14.20;99.90;;;;;;5042638;28;38738;-81
2023/11/23 12:18:35;;;;;;;13.00;3.17;;;14.30;99.90;;;;;;5055565;28;39874;-80
2023/11/23 12:21:06;;;;;;;11.00;2.60;;;14.40;99.90;;;;;;5043145;28;38593;-79
2023/11/23 12:23:41;;;;;;;16.55;2.63;;;14.50;99.90;;;;;;5039143;28;48281;-80
2023/11/23 12:26:08;;;;;;;13.05;3.17;;;14.60;99.90;;;;;;5039818;28;38495;-80
2023/11/23 12:28:35;;;;;;;14.73;3.15;;;14.50;99.90;;;;;;5037872;28;39389;-80
2023/11/23 12:31:01;;;;;;;20.27;2.72;;;14.50;99.90;;;;;;5035510;28;36508;-80
2023/11/23 12:33:27;;;;;;;16.25;2.47;;;14.40;99.90;;;;;;5037235;28;46808;-79
2023/11/23 12:35:53;;;;;;;12.15;2.28;;;14.50;99.90;;;;;;5039638;28;39628;-80
2023/11/23 12:38:19;;;;;;;16.42;2.70;;;14.40;99.90;;;;;;5036134;28;38709;-79